createdAt,value
2023-07-21T00:02:02.897Z,13.70
2023-07-21T00:04:32.630Z,13.70
2023-07-21T00:07:00.436Z,13.70
2023-07-21T00:09:28.383Z,13.70
2023-07-21T00:11:56.225Z,13.70
2023-07-21T00:14:25.301Z,13.70
2023-07-21T00:16:54.408Z,13.60
2023-07-21T00:19:23.870Z,13.60
2023-07-21T00:21:53.152Z,13.50
2023-07-21T00:24:22.006Z,13.50
2023-07-21T00:26:49.904Z,13.50
2023-07-21T00:29:18.691Z,13.50
2023-07-21T00:31:50.191Z,13.50
2023-07-21T00:34:18.257Z,13.40
2023-07-21T00:36:50.154Z,13.40
2023-07-21T00:39:17.939Z,13.40
2023-07-21T00:41:46.110Z,13.30
2023-07-21T00:44:14.280Z,13.30
2023-07-21T00:46:43.137Z,13.30
2023-07-21T00:49:13.039Z,13.30
2023-07-21T00:51:41.408Z,13.30
2023-07-21T00:54:10.690Z,13.20
2023-07-21T00:56:38.620Z,13.20
2023-07-21T00:59:06.907Z,13.20
2023-07-21T01:01:34.919Z,13.20
2023-07-21T01:04:03.636Z,13.20
2023-07-21T01:06:43.436Z,13.20
2023-07-21T01:09:15.632Z,13.20
2023-07-21T01:11:43.640Z,13.10
2023-07-21T01:14:11.765Z,13.10
2023-07-21T01:16:44.419Z,13.10
2023-07-21T01:19:15.396Z,13.10
2023-07-21T01:21:48.077Z,13.10
2023-07-21T01:24:26.991Z,13.10
2023-07-21T01:26:57.672Z,13.10
2023-07-21T01:29:27.715Z,13.10
2023-07-21T01:31:56.332Z,13.10
2023-07-21T01:34:24.948Z,13.10
2023-07-21T01:36:53.138Z,13.10
2023-07-21T01:39:21.993Z,13.10
2023-07-21T01:41:52.317Z,13.20
2023-07-21T01:44:23.098Z,13.10
2023-07-21T01:46:54.269Z,13.20
2023-07-21T01:49:22.627Z,13.20
2023-07-21T01:51:53.325Z,13.20
2023-07-21T01:54:27.110Z,13.20
2023-07-21T01:57:01.490Z,13.20
2023-07-21T01:59:30.853Z,13.20
2023-07-21T02:02:01.297Z,13.20
2023-07-21T02:04:29.280Z,13.20
2023-07-21T02:06:57.360Z,13.20
2023-07-21T02:09:25.430Z,13.20
2023-07-21T02:11:53.284Z,13.30
2023-07-21T02:14:23.361Z,13.20
2023-07-21T02:16:52.578Z,13.30
2023-07-21T02:19:20.644Z,13.30
2023-07-21T02:21:49.583Z,13.30
2023-07-21T02:24:17.620Z,13.30
2023-07-21T02:26:45.542Z,13.30
2023-07-21T02:29:13.414Z,13.30
2023-07-21T02:31:41.328Z,13.30
2023-07-21T02:34:11.626Z,13.30
2023-07-21T02:36:39.511Z,13.30
2023-07-21T02:39:07.367Z,13.30
2023-07-21T02:41:35.282Z,13.30
2023-07-21T02:44:03.085Z,13.30
2023-07-21T02:46:31.083Z,13.30
2023-07-21T02:49:02.970Z,13.30
2023-07-21T02:51:32.898Z,13.30
2023-07-21T02:54:00.688Z,13.30
2023-07-21T02:56:28.956Z,13.30
2023-07-21T02:58:58.000Z,13.30
2023-07-21T03:01:26.099Z,13.30
2023-07-21T03:03:55.468Z,13.30
2023-07-21T03:06:25.440Z,13.30
2023-07-21T03:08:55.097Z,13.40
2023-07-21T03:11:22.932Z,13.40
2023-07-21T03:13:50.868Z,13.40
2023-07-21T03:16:18.773Z,13.40
2023-07-21T03:18:46.563Z,13.40
2023-07-21T03:21:14.436Z,13.30
2023-07-21T03:23:42.611Z,13.30
2023-07-21T03:26:16.165Z,13.30
2023-07-21T03:28:43.989Z,13.30
2023-07-21T03:31:13.070Z,13.30
2023-07-21T03:33:41.008Z,13.30
2023-07-21T03:36:09.097Z,13.20
2023-07-21T03:38:39.339Z,13.20
2023-07-21T03:41:09.185Z,13.20
2023-07-21T03:43:39.089Z,13.20
2023-07-21T03:46:08.296Z,13.20
2023-07-21T03:48:36.946Z,13.20
2023-07-21T03:51:08.123Z,13.20
2023-07-21T03:53:37.558Z,13.20
2023-07-21T03:56:06.152Z,13.20
2023-07-21T03:58:34.200Z,13.20
2023-07-21T04:01:09.486Z,13.20
2023-07-21T04:03:37.691Z,13.20
2023-07-21T04:06:08.454Z,13.30
2023-07-21T04:08:36.768Z,13.30
2023-07-21T04:11:04.958Z,13.30
2023-07-21T04:13:34.273Z,13.30
2023-07-21T04:16:03.593Z,13.20
2023-07-21T04:18:35.270Z,13.30
2023-07-21T04:21:03.142Z,13.30
2023-07-21T04:23:31.025Z,13.40
2023-07-21T04:25:58.874Z,13.40
2023-07-21T04:28:26.721Z,13.40
2023-07-21T04:30:55.731Z,13.40
2023-07-21T04:33:25.025Z,13.50
2023-07-21T04:35:53.338Z,13.50
2023-07-21T04:38:21.117Z,13.50
2023-07-21T04:40:49.059Z,13.40
2023-07-21T04:43:17.717Z,13.50
2023-07-21T04:45:47.722Z,13.50
2023-07-21T04:48:15.630Z,13.50
2023-07-21T04:50:44.880Z,13.60
2023-07-21T04:53:15.104Z,13.70
2023-07-21T04:55:42.969Z,13.70
2023-07-21T04:58:13.093Z,13.80
2023-07-21T05:00:41.116Z,13.80
2023-07-21T05:03:09.030Z,13.90
2023-07-21T05:05:36.941Z,13.90
2023-07-21T05:08:06.580Z,14.00
2023-07-21T05:10:36.236Z,14.00
2023-07-21T05:13:07.215Z,14.00
2023-07-21T05:15:40.764Z,14.20
2023-07-21T05:18:10.301Z,14.20
2023-07-21T05:20:41.829Z,14.30
2023-07-21T05:23:12.915Z,14.40
2023-07-21T05:25:44.830Z,14.40
2023-07-21T05:28:15.194Z,14.50
2023-07-21T05:30:45.756Z,14.50
2023-07-21T05:33:13.724Z,14.60
2023-07-21T05:35:43.574Z,14.70
2023-07-21T05:38:14.544Z,14.70
2023-07-21T05:40:42.552Z,14.70
2023-07-21T05:43:10.829Z,14.80
2023-07-21T05:45:40.139Z,14.90
2023-07-21T05:48:11.764Z,14.90
2023-07-21T05:50:39.575Z,15.00
2023-07-21T05:53:07.432Z,15.10
2023-07-21T05:55:36.723Z,15.10
2023-07-21T05:58:04.700Z,15.20
2023-07-21T06:00:37.769Z,15.20
2023-07-21T06:03:05.816Z,15.30
2023-07-21T06:05:37.479Z,15.40
2023-07-21T06:08:07.933Z,15.40
2023-07-21T06:10:37.205Z,15.50
2023-07-21T06:13:05.469Z,15.60
2023-07-21T06:15:33.470Z,15.70
2023-07-21T06:18:04.517Z,15.80
2023-07-21T06:20:32.768Z,15.90
2023-07-21T06:23:02.128Z,16.00
2023-07-21T06:25:30.143Z,16.20
2023-07-21T06:27:59.444Z,16.40
2023-07-21T06:30:29.355Z,16.60
2023-07-21T06:32:57.282Z,16.80
2023-07-21T06:35:28.832Z,17.00
2023-07-21T06:37:56.694Z,17.20
2023-07-21T06:40:25.060Z,17.40
2023-07-21T06:42:53.253Z,17.70
2023-07-21T06:45:22.697Z,17.90
2023-07-21T06:47:52.734Z,18.00
2023-07-21T06:50:20.698Z,18.00
2023-07-21T06:52:49.812Z,18.10
2023-07-21T06:55:24.321Z,18.20
2023-07-21T06:57:52.145Z,18.30
2023-07-21T07:00:26.336Z,18.30
2023-07-21T07:03:01.739Z,18.30
2023-07-21T07:05:30.192Z,18.30
2023-07-21T07:07:58.041Z,18.20
2023-07-21T07:10:27.674Z,18.30
2023-07-21T07:12:55.700Z,18.40
2023-07-21T07:15:23.597Z,18.40
2023-07-21T07:17:51.642Z,18.50
2023-07-21T07:20:20.988Z,18.60
2023-07-21T07:22:55.543Z,18.70
2023-07-21T07:25:26.026Z,18.80
2023-07-21T07:27:54.064Z,18.90
2023-07-21T07:30:22.692Z,19.00
2023-07-21T07:32:51.897Z,19.10
2023-07-21T07:35:22.357Z,19.20
2023-07-21T07:37:50.883Z,19.40
2023-07-21T07:40:19.789Z,19.40
2023-07-21T07:42:47.774Z,19.60
2023-07-21T07:45:18.785Z,19.70
2023-07-21T07:47:46.918Z,19.80
2023-07-21T07:50:14.959Z,19.80
2023-07-21T07:52:46.129Z,19.90
2023-07-21T07:55:14.100Z,20.00
2023-07-21T07:57:49.871Z,20.00
2023-07-21T08:00:19.330Z,19.90
2023-07-21T08:02:48.809Z,19.90
2023-07-21T08:05:19.194Z,20.00
2023-07-21T08:07:50.846Z,20.20
2023-07-21T08:10:18.774Z,20.40
2023-07-21T08:12:48.004Z,20.50
2023-07-21T08:15:16.459Z,20.60
2023-07-21T08:17:44.638Z,20.70
2023-07-21T08:20:13.575Z,20.70
2023-07-21T08:22:41.447Z,20.90
2023-07-21T08:25:11.124Z,21.00
2023-07-21T08:27:41.664Z,21.00
2023-07-21T08:30:11.024Z,21.00
2023-07-21T08:32:40.086Z,21.10
2023-07-21T08:35:09.319Z,21.20
2023-07-21T08:37:37.899Z,21.10
2023-07-21T08:40:07.089Z,21.10
2023-07-21T08:42:39.515Z,21.00
2023-07-21T08:45:10.829Z,20.90
2023-07-21T08:47:41.412Z,21.00
2023-07-21T08:50:10.266Z,21.00
2023-07-21T08:52:38.215Z,21.10
2023-07-21T08:55:07.134Z,21.30
2023-07-21T08:57:37.593Z,21.40
2023-07-21T09:00:11.157Z,21.50
2023-07-21T09:02:40.648Z,21.60
2023-07-21T09:05:11.907Z,21.70
2023-07-21T09:07:41.816Z,21.70
2023-07-21T09:10:11.572Z,21.80
2023-07-21T09:12:41.064Z,21.90
2023-07-21T09:15:12.739Z,22.20
2023-07-21T09:17:44.441Z,22.30
2023-07-21T09:20:13.296Z,22.40
2023-07-21T09:22:41.767Z,22.40
2023-07-21T09:25:10.929Z,22.30
2023-07-21T09:27:41.760Z,22.40
2023-07-21T09:30:10.396Z,22.50
2023-07-21T09:32:42.615Z,22.30
2023-07-21T09:35:12.336Z,22.40
2023-07-21T09:37:41.682Z,22.40
2023-07-21T09:40:11.548Z,22.30
2023-07-21T09:42:41.498Z,22.20
2023-07-21T09:45:10.727Z,22.30
2023-07-21T09:47:42.586Z,22.40
2023-07-21T09:50:13.469Z,22.50
2023-07-21T09:52:43.618Z,22.50
2023-07-21T09:55:14.966Z,22.50
2023-07-21T09:57:46.381Z,22.60
2023-07-21T10:00:19.772Z,22.70
2023-07-21T10:02:51.154Z,22.80
2023-07-21T10:05:19.894Z,22.90
2023-07-21T10:07:49.443Z,22.90
2023-07-21T10:10:18.582Z,22.90
2023-07-21T10:12:51.744Z,22.90
2023-07-21T10:15:30.167Z,23.00
2023-07-21T10:17:59.916Z,23.00
2023-07-21T10:20:53.088Z,23.10
2023-07-21T10:23:26.320Z,22.90
2023-07-21T10:26:01.768Z,22.80
2023-07-21T10:28:39.579Z,22.90
2023-07-21T10:31:39.862Z,22.90
2023-07-21T10:34:13.119Z,23.00
2023-07-21T10:36:57.027Z,23.10
2023-07-21T10:39:27.559Z,23.20
2023-07-21T10:41:57.887Z,23.30
2023-07-21T10:44:34.381Z,23.30
2023-07-21T10:47:02.312Z,23.20
2023-07-21T10:49:32.844Z,23.20
2023-07-21T10:52:00.715Z,23.20
2023-07-21T10:54:28.684Z,23.20
2023-07-21T10:56:56.996Z,23.20
2023-07-21T10:59:25.864Z,23.30
2023-07-21T11:01:56.308Z,23.20
2023-07-21T11:04:25.911Z,23.20
2023-07-21T11:06:55.731Z,23.20
2023-07-21T11:09:24.478Z,23.10
2023-07-21T11:11:53.725Z,23.10
2023-07-21T11:14:27.962Z,23.10
2023-07-21T11:16:59.702Z,23.20
2023-07-21T11:19:29.081Z,23.10
2023-07-21T11:21:59.742Z,23.10
2023-07-21T11:24:30.503Z,22.90
2023-07-21T11:27:05.630Z,23.00
2023-07-21T11:29:38.753Z,23.10
2023-07-21T11:32:19.578Z,23.30
2023-07-21T11:34:47.917Z,23.30
2023-07-21T11:37:16.984Z,23.30
2023-07-21T11:39:55.538Z,23.20
2023-07-21T11:42:23.550Z,23.20
2023-07-21T11:44:51.672Z,23.20
2023-07-21T11:47:20.916Z,23.10
2023-07-21T11:49:50.538Z,23.10
2023-07-21T11:52:25.904Z,23.20
2023-07-21T11:54:54.757Z,23.30
2023-07-21T11:57:32.546Z,23.40
2023-07-21T12:00:14.519Z,23.40
2023-07-21T12:02:44.143Z,23.40
2023-07-21T12:05:12.267Z,23.40
2023-07-21T12:07:50.348Z,23.30
2023-07-21T12:10:18.146Z,23.40
2023-07-21T12:12:45.987Z,23.50
2023-07-21T12:15:13.860Z,23.60
2023-07-21T12:17:43.382Z,23.70
2023-07-21T12:20:13.056Z,23.70
2023-07-21T12:22:41.367Z,23.70
2023-07-21T12:25:11.112Z,23.60
2023-07-21T12:27:39.235Z,23.60
2023-07-21T12:30:10.189Z,23.50
2023-07-21T12:32:38.305Z,23.50
2023-07-21T12:35:08.708Z,23.60
2023-07-21T12:37:41.033Z,23.60
2023-07-21T12:40:13.288Z,23.60
2023-07-21T12:42:41.458Z,23.60
2023-07-21T12:45:10.853Z,23.70
2023-07-21T12:47:45.586Z,23.70
2023-07-21T12:50:15.040Z,23.60
2023-07-21T12:52:45.950Z,23.70
2023-07-21T12:55:13.819Z,23.80
2023-07-21T12:57:46.857Z,24.00
2023-07-21T13:00:15.885Z,24.00
2023-07-21T13:02:49.596Z,24.00
2023-07-21T13:05:19.276Z,24.10
2023-07-21T13:07:51.899Z,24.10
2023-07-21T13:10:20.117Z,24.10
2023-07-21T13:12:54.357Z,24.10
2023-07-21T13:15:22.268Z,24.10
2023-07-21T13:17:55.049Z,24.30
2023-07-21T13:20:25.209Z,24.30
2023-07-21T13:23:02.505Z,24.30
2023-07-21T13:25:37.745Z,24.40
2023-07-21T13:28:05.844Z,24.50
2023-07-21T13:30:39.108Z,24.50
2023-07-21T13:33:07.364Z,24.50
2023-07-21T13:35:44.544Z,24.40
2023-07-21T13:38:12.441Z,24.40
2023-07-21T13:40:49.168Z,24.60
2023-07-21T13:43:18.281Z,24.70
2023-07-21T13:45:46.756Z,24.80
2023-07-21T13:48:14.701Z,24.90
2023-07-21T13:50:44.098Z,24.90
2023-07-21T13:53:11.895Z,24.90
2023-07-21T13:55:39.802Z,25.00
2023-07-21T13:58:07.941Z,25.10
2023-07-21T14:00:36.688Z,25.20
2023-07-21T14:03:05.167Z,25.20
2023-07-21T14:05:33.530Z,25.10
2023-07-21T14:08:02.820Z,24.90
2023-07-21T14:10:37.744Z,24.80
2023-07-21T14:13:05.640Z,24.80
2023-07-21T14:15:35.613Z,24.60
2023-07-21T14:18:03.621Z,24.50
2023-07-21T14:20:31.749Z,24.50
2023-07-21T14:22:59.613Z,24.50
2023-07-21T14:25:29.116Z,24.50
2023-07-21T14:27:57.566Z,24.50
2023-07-21T14:30:25.415Z,24.60
2023-07-21T14:32:53.312Z,24.60
2023-07-21T14:35:21.721Z,24.60
2023-07-21T14:37:49.777Z,24.60
2023-07-21T14:40:18.711Z,24.60
2023-07-21T14:42:48.209Z,24.60
2023-07-21T14:45:16.885Z,24.40
2023-07-21T14:47:46.317Z,24.30
2023-07-21T14:50:16.999Z,24.30
2023-07-21T14:52:45.050Z,24.20
2023-07-21T14:55:14.023Z,24.10
2023-07-21T14:57:42.492Z,23.70
2023-07-21T15:00:21.450Z,23.60
2023-07-21T15:02:50.101Z,23.30
2023-07-21T15:05:18.741Z,23.20
2023-07-21T15:07:47.690Z,23.00
2023-07-21T15:10:16.449Z,22.80
2023-07-21T15:12:45.346Z,22.70
2023-07-21T15:15:14.777Z,22.70
2023-07-21T15:17:42.721Z,22.70
2023-07-21T15:20:16.926Z,22.70
2023-07-21T15:22:46.613Z,22.60
2023-07-21T15:25:15.045Z,22.50
2023-07-21T15:27:45.149Z,22.50
2023-07-21T15:30:15.253Z,22.40
2023-07-21T15:32:43.452Z,22.30
2023-07-21T15:35:13.735Z,22.30
2023-07-21T15:37:41.593Z,22.10
2023-07-21T15:40:13.098Z,22.00
2023-07-21T15:42:45.495Z,21.70
2023-07-21T15:47:58.375Z,20.10
2023-07-21T15:50:26.365Z,19.50
2023-07-21T15:52:58.617Z,19.10
2023-07-21T15:55:40.985Z,18.90
2023-07-21T15:58:09.123Z,18.80
2023-07-21T16:00:37.929Z,18.70
2023-07-21T16:03:07.299Z,18.60
2023-07-21T16:05:52.597Z,18.30
2023-07-21T16:08:29.727Z,18.20
2023-07-21T16:11:03.568Z,18.00
2023-07-21T16:13:32.854Z,17.90
2023-07-21T16:16:17.179Z,17.80
2023-07-21T16:19:15.804Z,17.90
2023-07-21T16:22:33.125Z,17.90
2023-07-21T16:24:55.009Z,17.90
2023-07-21T16:27:26.338Z,17.90
2023-07-21T16:29:54.196Z,18.00
2023-07-21T16:32:22.343Z,18.00
2023-07-21T16:34:52.957Z,17.90
2023-07-21T16:37:20.814Z,17.90
2023-07-21T16:39:54.850Z,18.00
2023-07-21T16:42:22.884Z,18.10
2023-07-21T16:44:50.722Z,18.20
2023-07-21T16:47:24.065Z,18.20
2023-07-21T16:49:54.522Z,18.30
2023-07-21T16:52:22.557Z,18.30
2023-07-21T16:55:11.070Z,18.20
2023-07-21T16:57:45.301Z,18.10
2023-07-21T17:00:15.078Z,18.10
2023-07-21T17:02:43.143Z,18.10
2023-07-21T17:05:30.305Z,17.90
2023-07-21T17:08:08.215Z,17.80
2023-07-21T17:10:36.483Z,17.90
2023-07-21T17:13:07.740Z,17.90
2023-07-21T17:15:35.593Z,18.00
2023-07-21T17:18:13.743Z,18.00
2023-07-21T17:20:43.631Z,18.10
2023-07-21T17:23:14.427Z,18.00
2023-07-21T17:25:42.568Z,17.90
2023-07-21T17:28:17.456Z,17.90
2023-07-21T17:30:45.413Z,18.00
2023-07-21T17:33:16.262Z,18.00
2023-07-21T17:35:45.738Z,18.00
2023-07-21T17:38:24.802Z,18.00
2023-07-21T17:41:04.793Z,18.00
2023-07-21T17:43:34.439Z,18.00
2023-07-21T17:46:11.195Z,18.00
2023-07-21T17:48:44.433Z,17.90
2023-07-21T17:51:13.884Z,17.90
2023-07-21T17:53:46.539Z,17.90
2023-07-21T17:56:16.246Z,17.90
2023-07-21T17:58:52.662Z,17.80
2023-07-21T18:01:20.782Z,17.80
2023-07-21T18:03:50.863Z,17.80
2023-07-21T18:06:20.227Z,17.70
2023-07-21T18:08:51.694Z,17.70
2023-07-21T18:11:19.628Z,17.80
2023-07-21T18:13:57.781Z,17.70
2023-07-21T18:16:25.677Z,17.70
2023-07-21T18:19:00.220Z,17.70
2023-07-21T18:21:37.044Z,17.70
2023-07-21T18:24:05.489Z,17.60
2023-07-21T18:26:37.528Z,17.60
2023-07-21T18:29:05.571Z,17.60
2023-07-21T18:31:38.333Z,17.50
2023-07-21T18:34:09.412Z,17.50
2023-07-21T18:36:45.761Z,17.50
2023-07-21T18:39:13.803Z,17.50
2023-07-21T18:41:46.421Z,17.50
2023-07-21T18:44:14.443Z,17.60
2023-07-21T18:46:46.108Z,17.60
2023-07-21T18:49:14.042Z,17.60
2023-07-21T18:51:53.555Z,17.60
2023-07-21T18:54:21.422Z,17.50
2023-07-21T18:56:52.396Z,17.50
2023-07-21T18:59:20.925Z,17.50
2023-07-21T19:01:52.504Z,17.50
2023-07-21T19:04:20.366Z,17.50
2023-07-21T19:06:55.264Z,17.50
2023-07-21T19:09:23.146Z,17.40
2023-07-21T19:11:53.794Z,17.40
2023-07-21T19:14:21.683Z,17.30
2023-07-21T19:16:49.555Z,17.30
2023-07-21T19:19:21.084Z,17.20
2023-07-21T19:21:52.329Z,17.10
2023-07-21T19:24:21.881Z,17.10
2023-07-21T19:26:49.692Z,17.10
2023-07-21T19:29:28.218Z,17.10
2023-07-21T19:31:56.169Z,17.00
2023-07-21T19:34:30.627Z,17.00
2023-07-21T19:37:04.979Z,17.00
2023-07-21T19:39:33.218Z,17.00
2023-07-21T19:42:01.061Z,16.90
2023-07-21T19:44:30.858Z,16.90
2023-07-21T19:46:58.786Z,16.90
2023-07-21T19:49:32.350Z,16.80
2023-07-21T19:52:02.828Z,16.80
2023-07-21T19:54:37.272Z,16.80
2023-07-21T19:57:05.718Z,16.70
2023-07-21T19:59:40.034Z,16.70
2023-07-21T20:02:08.299Z,16.70
2023-07-21T20:04:38.125Z,16.70
2023-07-21T20:07:07.422Z,16.60
2023-07-21T20:09:36.431Z,16.70
2023-07-21T20:12:04.430Z,16.60
2023-07-21T20:14:32.295Z,16.60
2023-07-21T20:17:01.617Z,16.60
2023-07-21T20:19:32.147Z,16.50
2023-07-21T20:22:01.893Z,16.50
2023-07-21T20:24:31.342Z,16.40
2023-07-21T20:26:59.310Z,16.40
2023-07-21T20:29:27.186Z,16.40
2023-07-21T20:31:55.025Z,16.30
2023-07-21T20:34:24.911Z,16.20
2023-07-21T20:36:54.315Z,16.20
2023-07-21T20:39:22.726Z,16.20
2023-07-21T20:41:51.872Z,16.20
2023-07-21T20:44:19.753Z,16.10
2023-07-21T20:46:47.628Z,16.10
2023-07-21T20:49:17.172Z,16.10
2023-07-21T20:51:45.286Z,16.10
2023-07-21T20:54:14.230Z,16.00
2023-07-21T20:56:41.997Z,16.00
2023-07-21T20:59:11.184Z,15.90
2023-07-21T21:01:44.967Z,15.90
2023-07-21T21:04:14.483Z,15.90
2023-07-21T21:06:42.763Z,15.80
2023-07-21T21:09:11.510Z,15.80
2023-07-21T21:11:41.073Z,15.70
2023-07-21T21:14:12.407Z,15.70
2023-07-21T21:16:40.471Z,15.70
2023-07-21T21:19:08.402Z,15.70
2023-07-21T21:21:36.412Z,15.70
2023-07-21T21:24:05.045Z,15.60
2023-07-21T21:26:32.872Z,15.60
2023-07-21T21:29:00.693Z,15.60
2023-07-21T21:31:33.109Z,15.60
2023-07-21T21:34:00.991Z,15.60
2023-07-21T21:36:28.781Z,15.60
2023-07-21T21:38:58.181Z,15.60
2023-07-21T21:41:26.024Z,15.60
2023-07-21T21:43:56.082Z,15.60
2023-07-21T21:46:25.766Z,15.60
2023-07-21T21:48:59.325Z,15.60
2023-07-21T21:51:27.206Z,15.60
2023-07-21T21:53:55.553Z,15.40
2023-07-21T21:56:25.801Z,15.30
2023-07-21T21:58:53.996Z,15.20
2023-07-21T22:01:27.129Z,15.20
2023-07-21T22:03:56.748Z,15.20
2023-07-21T22:06:27.500Z,15.20
2023-07-21T22:08:56.060Z,15.20
2023-07-21T22:11:28.416Z,15.30
2023-07-21T22:13:56.603Z,15.30
2023-07-21T22:16:25.662Z,15.40
2023-07-21T22:18:53.791Z,15.30
2023-07-21T22:21:22.949Z,15.30
2023-07-21T22:23:54.443Z,15.30
2023-07-21T22:26:23.444Z,15.30
2023-07-21T22:28:54.312Z,15.30
2023-07-21T22:31:22.755Z,15.30
2023-07-21T22:33:50.678Z,15.30
2023-07-21T22:36:18.563Z,15.20
2023-07-21T22:38:47.754Z,15.10
2023-07-21T22:41:21.151Z,15.10
2023-07-21T22:43:49.120Z,15.10
2023-07-21T22:46:20.989Z,15.10
2023-07-21T22:48:49.220Z,15.10
2023-07-21T22:51:17.139Z,15.00
2023-07-21T22:53:45.190Z,15.00
2023-07-21T22:56:14.432Z,15.00
2023-07-21T22:58:46.326Z,15.00
2023-07-21T23:01:14.119Z,14.90
2023-07-21T23:03:41.967Z,14.90
2023-07-21T23:06:09.820Z,14.90
2023-07-21T23:08:37.633Z,14.80
2023-07-21T23:11:05.628Z,14.80
2023-07-21T23:13:34.752Z,14.80
2023-07-21T23:16:02.623Z,14.70
2023-07-21T23:18:30.475Z,14.70
2023-07-21T23:21:01.046Z,14.70
2023-07-21T23:23:30.353Z,14.70
2023-07-21T23:26:02.800Z,14.70
2023-07-21T23:28:30.921Z,14.70
2023-07-21T23:31:04.788Z,14.60
2023-07-21T23:33:33.191Z,14.60
2023-07-21T23:36:04.724Z,14.50
2023-07-21T23:38:33.883Z,14.50
2023-07-21T23:41:03.296Z,14.50
2023-07-21T23:43:31.297Z,14.50
2023-07-21T23:46:00.934Z,14.50
2023-07-21T23:48:30.682Z,14.40
2023-07-21T23:50:58.532Z,14.30
2023-07-21T23:53:28.081Z,14.30
2023-07-21T23:55:55.925Z,14.30
2023-07-21T23:58:24.045Z,14.20
